sensor_id;sensor_type;location;lat;lon;timestamp;P1;durP1;ratioP1;P2;durP2;ratioP2
34960;SDS011;30789;52.030;7.110;2023-07-31T00:01:28;2.08;;;1.00;;
34960;SDS011;30789;52.030;7.110;2023-07-31T00:03:55;1.23;;;0.90;;
34960;SDS011;30789;52.030;7.110;2023-07-31T00:06:21;1.48;;;1.00;;
34960;SDS011;30789;52.030;7.110;2023-07-31T00:08:48;1.30;;;0.90;;
34960;SDS011;30789;52.030;7.110;2023-07-31T00:11:16;2.13;;;1.30;;
34960;SDS011;30789;52.030;7.110;2023-07-31T00:13:42;1.55;;;1.08;;
34960;SDS011;30789;52.030;7.110;2023-07-31T00:16:09;1.23;;;0.80;;
34960;SDS011;30789;52.030;7.110;2023-07-31T00:18:35;1.05;;;0.95;;
34960;SDS011;30789;52.030;7.110;2023-07-31T00:21:02;1.40;;;1.00;;
34960;SDS011;30789;52.030;7.110;2023-07-31T00:23:28;1.52;;;1.13;;
34960;SDS011;30789;52.030;7.110;2023-07-31T00:25:55;2.08;;;1.30;;
34960;SDS011;30789;52.030;7.110;2023-07-31T00:28:23;2.83;;;1.40;;
34960;SDS011;30789;52.030;7.110;2023-07-31T00:30:49;2.45;;;1.52;;
34960;SDS011;30789;52.030;7.110;2023-07-31T00:33:16;2.90;;;1.88;;
34960;SDS011;30789;52.030;7.110;2023-07-31T00:35:42;2.42;;;2.13;;
34960;SDS011;30789;52.030;7.110;2023-07-31T00:38:09;1.83;;;1.52;;
34960;SDS011;30789;52.030;7.110;2023-07-31T00:40:36;2.50;;;1.63;;
34960;SDS011;30789;52.030;7.110;2023-07-31T00:43:03;2.65;;;2.05;;
34960;SDS011;30789;52.030;7.110;2023-07-31T00:45:31;1.63;;;1.48;;
34960;SDS011;30789;52.030;7.110;2023-07-31T00:47:58;2.05;;;1.63;;
34960;SDS011;30789;52.030;7.110;2023-07-31T00:50:25;2.55;;;1.50;;
34960;SDS011;30789;52.030;7.110;2023-07-31T00:52:53;1.20;;;1.10;;
34960;SDS011;30789;52.030;7.110;2023-07-31T00:55:19;1.67;;;1.50;;
34960;SDS011;30789;52.030;7.110;2023-07-31T00:57:46;1.63;;;1.40;;
34960;SDS011;30789;52.030;7.110;2023-07-31T01:00:14;2.08;;;1.55;;
34960;SDS011;30789;52.030;7.110;2023-07-31T01:02:42;1.75;;;1.42;;
34960;SDS011;30789;52.030;7.110;2023-07-31T01:05:08;1.45;;;1.35;;
34960;SDS011;30789;52.030;7.110;2023-07-31T01:07:38;2.25;;;1.70;;
34960;SDS011;30789;52.030;7.110;2023-07-31T01:10:13;4.60;;;1.75;;
34960;SDS011;30789;52.030;7.110;2023-07-31T01:12:44;1.42;;;1.33;;
34960;SDS011;30789;52.030;7.110;2023-07-31T01:15:11;3.20;;;1.20;;
34960;SDS011;30789;52.030;7.110;2023-07-31T01:17:40;1.75;;;1.60;;
34960;SDS011;30789;52.030;7.110;2023-07-31T01:20:10;1.40;;;1.30;;
34960;SDS011;30789;52.030;7.110;2023-07-31T01:23:03;2.10;;;1.20;;
34960;SDS011;30789;52.030;7.110;2023-07-31T01:26:02;1.65;;;0.93;;
34960;SDS011;30789;52.030;7.110;2023-07-31T01:28:33;2.28;;;0.98;;
34960;SDS011;30789;52.030;7.110;2023-07-31T01:31:07;1.23;;;0.82;;
34960;SDS011;30789;52.030;7.110;2023-07-31T01:33:37;1.67;;;1.25;;
34960;SDS011;30789;52.030;7.110;2023-07-31T01:36:04;1.02;;;0.93;;
34960;SDS011;30789;52.030;7.110;2023-07-31T01:38:31;1.20;;;1.10;;
34960;SDS011;30789;52.030;7.110;2023-07-31T01:40:57;1.10;;;1.00;;
34960;SDS011;30789;52.030;7.110;2023-07-31T01:43:25;0.90;;;0.90;;
34960;SDS011;30789;52.030;7.110;2023-07-31T01:45:52;1.27;;;0.70;;
34960;SDS011;30789;52.030;7.110;2023-07-31T01:48:19;4.07;;;0.90;;
34960;SDS011;30789;52.030;7.110;2023-07-31T01:53:24;0.93;;;0.70;;
34960;SDS011;30789;52.030;7.110;2023-07-31T01:55:50;1.10;;;0.80;;
34960;SDS011;30789;52.030;7.110;2023-07-31T01:58:16;0.80;;;0.57;;
34960;SDS011;30789;52.030;7.110;2023-07-31T02:00:44;4.15;;;1.50;;
34960;SDS011;30789;52.030;7.110;2023-07-31T02:03:11;4.40;;;2.20;;
34960;SDS011;30789;52.030;7.110;2023-07-31T02:05:43;6.38;;;2.50;;
34960;SDS011;30789;52.030;7.110;2023-07-31T02:08:10;5.97;;;3.55;;
34960;SDS011;30789;52.030;7.110;2023-07-31T02:10:36;6.28;;;3.92;;
34960;SDS011;30789;52.030;7.110;2023-07-31T02:13:03;12.50;;;4.75;;
34960;SDS011;30789;52.030;7.110;2023-07-31T02:15:29;10.30;;;5.25;;
34960;SDS011;30789;52.030;7.110;2023-07-31T02:17:57;12.18;;;5.53;;
34960;SDS011;30789;52.030;7.110;2023-07-31T02:20:24;9.70;;;6.60;;
34960;SDS011;30789;52.030;7.110;2023-07-31T02:22:50;14.10;;;7.68;;
34960;SDS011;30789;52.030;7.110;2023-07-31T02:25:17;12.30;;;7.13;;
34960;SDS011;30789;52.030;7.110;2023-07-31T02:27:43;19.90;;;8.75;;
34960;SDS011;30789;52.030;7.110;2023-07-31T02:30:10;22.08;;;8.73;;
34960;SDS011;30789;52.030;7.110;2023-07-31T02:32:37;19.60;;;8.73;;
34960;SDS011;30789;52.030;7.110;2023-07-31T02:35:06;18.30;;;8.95;;
34960;SDS011;30789;52.030;7.110;2023-07-31T02:37:33;17.63;;;8.63;;
34960;SDS011;30789;52.030;7.110;2023-07-31T02:40:00;13.45;;;8.45;;
34960;SDS011;30789;52.030;7.110;2023-07-31T02:42:26;23.95;;;9.43;;
34960;SDS011;30789;52.030;7.110;2023-07-31T02:44:53;27.48;;;9.90;;
34960;SDS011;30789;52.030;7.110;2023-07-31T02:47:20;19.48;;;8.20;;
34960;SDS011;30789;52.030;7.110;2023-07-31T02:49:47;21.13;;;8.95;;
34960;SDS011;30789;52.030;7.110;2023-07-31T02:52:15;22.70;;;9.25;;
34960;SDS011;30789;52.030;7.110;2023-07-31T02:54:41;20.58;;;8.40;;
34960;SDS011;30789;52.030;7.110;2023-07-31T02:57:08;28.33;;;8.73;;
34960;SDS011;30789;52.030;7.110;2023-07-31T02:59:34;14.05;;;7.68;;
34960;SDS011;30789;52.030;7.110;2023-07-31T03:02:01;21.05;;;8.02;;
34960;SDS011;30789;52.030;7.110;2023-07-31T03:04:28;20.88;;;7.93;;
34960;SDS011;30789;52.030;7.110;2023-07-31T03:06:54;20.33;;;7.45;;
34960;SDS011;30789;52.030;7.110;2023-07-31T03:09:22;17.25;;;7.38;;
34960;SDS011;30789;52.030;7.110;2023-07-31T03:11:49;24.48;;;8.43;;
34960;SDS011;30789;52.030;7.110;2023-07-31T03:14:15;16.80;;;7.22;;
34960;SDS011;30789;52.030;7.110;2023-07-31T03:16:42;19.00;;;6.97;;
34960;SDS011;30789;52.030;7.110;2023-07-31T03:19:08;16.05;;;6.35;;
34960;SDS011;30789;52.030;7.110;2023-07-31T03:21:35;21.17;;;6.57;;
34960;SDS011;30789;52.030;7.110;2023-07-31T03:24:01;15.38;;;6.72;;
34960;SDS011;30789;52.030;7.110;2023-07-31T03:26:30;17.33;;;5.85;;
34960;SDS011;30789;52.030;7.110;2023-07-31T03:28:57;17.63;;;6.18;;
34960;SDS011;30789;52.030;7.110;2023-07-31T03:31:23;22.27;;;6.47;;
34960;SDS011;30789;52.030;7.110;2023-07-31T03:33:50;15.35;;;5.78;;
34960;SDS011;30789;52.030;7.110;2023-07-31T03:36:16;12.30;;;5.90;;
34960;SDS011;30789;52.030;7.110;2023-07-31T03:38:43;13.77;;;6.10;;
34960;SDS011;30789;52.030;7.110;2023-07-31T03:41:09;13.70;;;5.82;;
34960;SDS011;30789;52.030;7.110;2023-07-31T03:43:37;19.17;;;6.07;;
34960;SDS011;30789;52.030;7.110;2023-07-31T03:46:04;15.60;;;6.03;;
34960;SDS011;30789;52.030;7.110;2023-07-31T03:48:30;17.10;;;6.25;;
34960;SDS011;30789;52.030;7.110;2023-07-31T03:50:57;18.85;;;6.28;;
34960;SDS011;30789;52.030;7.110;2023-07-31T03:53:24;14.68;;;6.10;;
34960;SDS011;30789;52.030;7.110;2023-07-31T03:55:50;15.23;;;6.25;;
34960;SDS011;30789;52.030;7.110;2023-07-31T03:58:17;14.35;;;6.53;;
34960;SDS011;30789;52.030;7.110;2023-07-31T04:00:45;14.82;;;6.07;;
34960;SDS011;30789;52.030;7.110;2023-07-31T04:03:11;14.20;;;6.32;;
34960;SDS011;30789;52.030;7.110;2023-07-31T04:05:38;12.85;;;5.45;;
34960;SDS011;30789;52.030;7.110;2023-07-31T04:08:05;16.92;;;5.90;;
34960;SDS011;30789;52.030;7.110;2023-07-31T04:10:32;14.48;;;5.47;;
34960;SDS011;30789;52.030;7.110;2023-07-31T04:12:58;13.10;;;6.00;;
34960;SDS011;30789;52.030;7.110;2023-07-31T04:15:25;15.55;;;5.80;;
34960;SDS011;30789;52.030;7.110;2023-07-31T04:17:53;14.40;;;5.95;;
34960;SDS011;30789;52.030;7.110;2023-07-31T04:20:19;16.15;;;5.53;;
34960;SDS011;30789;52.030;7.110;2023-07-31T04:22:46;13.00;;;5.85;;
34960;SDS011;30789;52.030;7.110;2023-07-31T04:25:13;15.23;;;6.03;;
34960;SDS011;30789;52.030;7.110;2023-07-31T04:27:39;12.98;;;5.60;;
34960;SDS011;30789;52.030;7.110;2023-07-31T04:30:06;12.52;;;5.63;;
34960;SDS011;30789;52.030;7.110;2023-07-31T04:32:33;13.73;;;5.43;;
34960;SDS011;30789;52.030;7.110;2023-07-31T04:35:01;13.45;;;5.53;;
34960;SDS011;30789;52.030;7.110;2023-07-31T04:37:28;13.95;;;5.32;;
34960;SDS011;30789;52.030;7.110;2023-07-31T04:39:54;15.88;;;5.32;;
34960;SDS011;30789;52.030;7.110;2023-07-31T04:42:21;14.35;;;5.40;;
34960;SDS011;30789;52.030;7.110;2023-07-31T04:44:47;17.98;;;5.50;;
34960;SDS011;30789;52.030;7.110;2023-07-31T04:47:14;13.48;;;4.88;;
34960;SDS011;30789;52.030;7.110;2023-07-31T04:49:40;20.27;;;5.07;;
34960;SDS011;30789;52.030;7.110;2023-07-31T04:52:08;11.95;;;5.50;;
34960;SDS011;30789;52.030;7.110;2023-07-31T04:54:35;13.07;;;5.32;;
34960;SDS011;30789;52.030;7.110;2023-07-31T04:57:01;12.57;;;4.72;;
34960;SDS011;30789;52.030;7.110;2023-07-31T04:59:28;19.30;;;5.93;;
34960;SDS011;30789;52.030;7.110;2023-07-31T05:01:54;14.70;;;5.18;;
34960;SDS011;30789;52.030;7.110;2023-07-31T05:04:21;12.68;;;4.97;;
34960;SDS011;30789;52.030;7.110;2023-07-31T05:06:47;14.85;;;5.90;;
34960;SDS011;30789;52.030;7.110;2023-07-31T05:09:15;21.63;;;5.80;;
34960;SDS011;30789;52.030;7.110;2023-07-31T05:11:42;13.52;;;5.32;;
34960;SDS011;30789;52.030;7.110;2023-07-31T05:14:08;20.42;;;6.10;;
34960;SDS011;30789;52.030;7.110;2023-07-31T05:16:35;16.35;;;5.60;;
34960;SDS011;30789;52.030;7.110;2023-07-31T05:19:01;15.15;;;5.63;;
34960;SDS011;30789;52.030;7.110;2023-07-31T05:21:28;15.50;;;5.50;;
34960;SDS011;30789;52.030;7.110;2023-07-31T05:23:54;15.30;;;6.18;;
34960;SDS011;30789;52.030;7.110;2023-07-31T05:26:22;17.45;;;5.57;;
34960;SDS011;30789;52.030;7.110;2023-07-31T05:28:49;12.70;;;5.20;;
34960;SDS011;30789;52.030;7.110;2023-07-31T05:31:15;21.33;;;5.53;;
34960;SDS011;30789;52.030;7.110;2023-07-31T05:33:42;12.85;;;5.32;;
34960;SDS011;30789;52.030;7.110;2023-07-31T05:36:08;22.25;;;6.22;;
34960;SDS011;30789;52.030;7.110;2023-07-31T05:41:01;18.67;;;5.80;;
34960;SDS011;30789;52.030;7.110;2023-07-31T05:43:29;13.65;;;5.70;;
34960;SDS011;30789;52.030;7.110;2023-07-31T05:45:55;16.73;;;5.63;;
34960;SDS011;30789;52.030;7.110;2023-07-31T05:48:22;17.27;;;6.07;;
34960;SDS011;30789;52.030;7.110;2023-07-31T05:50:48;20.52;;;6.35;;
34960;SDS011;30789;52.030;7.110;2023-07-31T05:53:15;19.17;;;5.78;;
34960;SDS011;30789;52.030;7.110;2023-07-31T05:55:41;18.55;;;5.78;;
34960;SDS011;30789;52.030;7.110;2023-07-31T05:58:08;16.23;;;6.68;;
34960;SDS011;30789;52.030;7.110;2023-07-31T06:00:36;10.10;;;5.93;;
34960;SDS011;30789;52.030;7.110;2023-07-31T06:03:02;16.70;;;6.13;;
34960;SDS011;30789;52.030;7.110;2023-07-31T06:05:29;17.88;;;6.05;;
34960;SDS011;30789;52.030;7.110;2023-07-31T06:07:56;15.50;;;5.68;;
34960;SDS011;30789;52.030;7.110;2023-07-31T06:10:22;16.67;;;5.45;;
34960;SDS011;30789;52.030;7.110;2023-07-31T06:12:49;17.60;;;5.80;;
34960;SDS011;30789;52.030;7.110;2023-07-31T06:15:15;15.50;;;5.07;;
34960;SDS011;30789;52.030;7.110;2023-07-31T06:17:44;11.50;;;5.25;;
34960;SDS011;30789;52.030;7.110;2023-07-31T06:20:11;17.58;;;5.05;;
34960;SDS011;30789;52.030;7.110;2023-07-31T06:22:37;14.35;;;5.30;;
34960;SDS011;30789;52.030;7.110;2023-07-31T06:25:04;13.57;;;5.22;;
34960;SDS011;30789;52.030;7.110;2023-07-31T06:27:31;15.15;;;5.18;;
34960;SDS011;30789;52.030;7.110;2023-07-31T06:29:58;12.45;;;4.85;;
34960;SDS011;30789;52.030;7.110;2023-07-31T06:32:24;15.50;;;5.32;;
34960;SDS011;30789;52.030;7.110;2023-07-31T06:34:52;14.68;;;4.80;;
34960;SDS011;30789;52.030;7.110;2023-07-31T06:37:19;15.27;;;5.55;;
34960;SDS011;30789;52.030;7.110;2023-07-31T06:39:45;11.93;;;4.30;;
34960;SDS011;30789;52.030;7.110;2023-07-31T06:42:12;16.48;;;5.68;;
34960;SDS011;30789;52.030;7.110;2023-07-31T06:44:38;12.82;;;4.95;;
34960;SDS011;30789;52.030;7.110;2023-07-31T06:47:05;16.55;;;5.50;;
34960;SDS011;30789;52.030;7.110;2023-07-31T06:49:34;17.77;;;4.95;;
34960;SDS011;30789;52.030;7.110;2023-07-31T06:52:02;13.30;;;4.50;;
34960;SDS011;30789;52.030;7.110;2023-07-31T06:54:28;8.85;;;4.35;;
34960;SDS011;30789;52.030;7.110;2023-07-31T06:56:55;10.60;;;5.00;;
34960;SDS011;30789;52.030;7.110;2023-07-31T06:59:21;11.60;;;5.03;;
34960;SDS011;30789;52.030;7.110;2023-07-31T07:01:48;13.20;;;5.63;;
34960;SDS011;30789;52.030;7.110;2023-07-31T07:04:14;12.15;;;5.22;;
34960;SDS011;30789;52.030;7.110;2023-07-31T07:06:41;12.13;;;5.55;;
34960;SDS011;30789;52.030;7.110;2023-07-31T07:09:09;10.63;;;4.38;;
34960;SDS011;30789;52.030;7.110;2023-07-31T07:11:35;10.73;;;4.47;;
34960;SDS011;30789;52.030;7.110;2023-07-31T07:14:02;12.02;;;4.53;;
34960;SDS011;30789;52.030;7.110;2023-07-31T07:16:28;11.77;;;4.50;;
34960;SDS011;30789;52.030;7.110;2023-07-31T07:18:55;9.20;;;4.63;;
34960;SDS011;30789;52.030;7.110;2023-07-31T07:21:22;10.25;;;4.35;;
34960;SDS011;30789;52.030;7.110;2023-07-31T07:23:49;12.00;;;4.05;;
34960;SDS011;30789;52.030;7.110;2023-07-31T07:26:17;7.93;;;3.20;;
34960;SDS011;30789;52.030;7.110;2023-07-31T07:28:43;5.03;;;3.03;;
34960;SDS011;30789;52.030;7.110;2023-07-31T07:31:10;5.20;;;2.90;;
34960;SDS011;30789;52.030;7.110;2023-07-31T07:33:36;7.40;;;2.80;;
34960;SDS011;30789;52.030;7.110;2023-07-31T07:36:03;5.65;;;2.90;;
34960;SDS011;30789;52.030;7.110;2023-07-31T07:38:30;4.60;;;2.55;;
34960;SDS011;30789;52.030;7.110;2023-07-31T07:40:57;3.55;;;2.35;;
34960;SDS011;30789;52.030;7.110;2023-07-31T07:43:25;4.60;;;2.35;;
34960;SDS011;30789;52.030;7.110;2023-07-31T07:45:52;3.03;;;1.70;;
34960;SDS011;30789;52.030;7.110;2023-07-31T07:48:18;5.22;;;2.10;;
34960;SDS011;30789;52.030;7.110;2023-07-31T07:50:45;3.60;;;2.08;;
34960;SDS011;30789;52.030;7.110;2023-07-31T07:53:22;2.30;;;1.83;;
34960;SDS011;30789;52.030;7.110;2023-07-31T07:55:48;2.42;;;1.90;;
34960;SDS011;30789;52.030;7.110;2023-07-31T07:58:15;3.47;;;1.90;;
34960;SDS011;30789;52.030;7.110;2023-07-31T08:00:43;2.80;;;2.15;;
34960;SDS011;30789;52.030;7.110;2023-07-31T08:03:14;5.45;;;2.20;;
34960;SDS011;30789;52.030;7.110;2023-07-31T08:05:41;2.88;;;2.03;;
34960;SDS011;30789;52.030;7.110;2023-07-31T08:08:08;2.13;;;1.73;;
34960;SDS011;30789;52.030;7.110;2023-07-31T08:10:40;2.67;;;1.92;;
34960;SDS011;30789;52.030;7.110;2023-07-31T08:13:07;2.20;;;1.80;;
34960;SDS011;30789;52.030;7.110;2023-07-31T08:15:33;2.60;;;2.13;;
34960;SDS011;30789;52.030;7.110;2023-07-31T08:18:01;2.67;;;2.08;;
34960;SDS011;30789;52.030;7.110;2023-07-31T08:20:28;2.80;;;2.03;;
34960;SDS011;30789;52.030;7.110;2023-07-31T08:22:54;2.55;;;2.33;;
34960;SDS011;30789;52.030;7.110;2023-07-31T08:25:21;3.58;;;3.00;;
34960;SDS011;30789;52.030;7.110;2023-07-31T08:27:47;4.95;;;3.42;;
34960;SDS011;30789;52.030;7.110;2023-07-31T08:30:14;5.05;;;2.55;;
34960;SDS011;30789;52.030;7.110;2023-07-31T08:32:40;4.30;;;2.70;;
34960;SDS011;30789;52.030;7.110;2023-07-31T08:35:08;4.68;;;2.83;;
34960;SDS011;30789;52.030;7.110;2023-07-31T08:37:34;5.55;;;3.55;;
34960;SDS011;30789;52.030;7.110;2023-07-31T08:40:01;3.92;;;2.63;;
34960;SDS011;30789;52.030;7.110;2023-07-31T08:42:28;2.85;;;2.05;;
34960;SDS011;30789;52.030;7.110;2023-07-31T08:44:54;2.97;;;2.13;;
34960;SDS011;30789;52.030;7.110;2023-07-31T08:47:22;4.35;;;2.50;;
34960;SDS011;30789;52.030;7.110;2023-07-31T08:49:50;3.15;;;2.50;;
34960;SDS011;30789;52.030;7.110;2023-07-31T08:52:20;2.13;;;1.92;;
34960;SDS011;30789;52.030;7.110;2023-07-31T08:54:46;4.05;;;2.70;;
34960;SDS011;30789;52.030;7.110;2023-07-31T08:57:13;2.67;;;2.15;;
34960;SDS011;30789;52.030;7.110;2023-07-31T08:59:40;2.40;;;2.20;;
34960;SDS011;30789;52.030;7.110;2023-07-31T09:02:09;3.70;;;2.20;;
34960;SDS011;30789;52.030;7.110;2023-07-31T09:04:36;5.00;;;2.30;;
34960;SDS011;30789;52.030;7.110;2023-07-31T09:07:03;4.30;;;2.17;;
34960;SDS011;30789;52.030;7.110;2023-07-31T09:09:33;3.67;;;2.28;;
34960;SDS011;30789;52.030;7.110;2023-07-31T09:11:59;2.45;;;1.70;;
34960;SDS011;30789;52.030;7.110;2023-07-31T09:14:26;3.53;;;2.33;;
34960;SDS011;30789;52.030;7.110;2023-07-31T09:16:53;2.63;;;2.28;;
34960;SDS011;30789;52.030;7.110;2023-07-31T09:19:27;4.78;;;2.40;;
34960;SDS011;30789;52.030;7.110;2023-07-31T09:21:55;3.67;;;2.10;;
34960;SDS011;30789;52.030;7.110;2023-07-31T09:24:25;3.10;;;2.10;;
34960;SDS011;30789;52.030;7.110;2023-07-31T09:26:54;2.63;;;2.00;;
34960;SDS011;30789;52.030;7.110;2023-07-31T09:29:22;2.10;;;1.90;;
34960;SDS011;30789;52.030;7.110;2023-07-31T09:31:49;2.88;;;2.13;;
34960;SDS011;30789;52.030;7.110;2023-07-31T09:34:16;2.90;;;1.80;;
34960;SDS011;30789;52.030;7.110;2023-07-31T09:36:43;2.20;;;1.90;;
34960;SDS011;30789;52.030;7.110;2023-07-31T09:39:12;4.03;;;2.20;;
34960;SDS011;30789;52.030;7.110;2023-07-31T09:41:42;2.58;;;2.20;;
34960;SDS011;30789;52.030;7.110;2023-07-31T09:44:12;2.45;;;2.00;;
34960;SDS011;30789;52.030;7.110;2023-07-31T09:46:40;2.88;;;1.83;;
34960;SDS011;30789;52.030;7.110;2023-07-31T09:49:08;3.10;;;2.03;;
34960;SDS011;30789;52.030;7.110;2023-07-31T09:51:35;2.47;;;1.90;;
34960;SDS011;30789;52.030;7.110;2023-07-31T09:54:04;5.03;;;1.85;;
34960;SDS011;30789;52.030;7.110;2023-07-31T09:56:36;2.13;;;1.88;;
34960;SDS011;30789;52.030;7.110;2023-07-31T09:59:02;3.17;;;2.15;;
34960;SDS011;30789;52.030;7.110;2023-07-31T10:01:31;3.03;;;1.90;;
34960;SDS011;30789;52.030;7.110;2023-07-31T10:03:58;4.07;;;2.05;;
34960;SDS011;30789;52.030;7.110;2023-07-31T10:06:25;2.13;;;1.60;;
34960;SDS011;30789;52.030;7.110;2023-07-31T10:08:52;2.58;;;1.95;;
34960;SDS011;30789;52.030;7.110;2023-07-31T10:11:20;3.28;;;1.75;;
34960;SDS011;30789;52.030;7.110;2023-07-31T10:13:50;2.28;;;1.50;;
34960;SDS011;30789;52.030;7.110;2023-07-31T10:16:18;2.92;;;1.67;;
34960;SDS011;30789;52.030;7.110;2023-07-31T10:18:47;2.42;;;1.90;;
34960;SDS011;30789;52.030;7.110;2023-07-31T10:21:14;2.10;;;1.90;;
34960;SDS011;30789;52.030;7.110;2023-07-31T10:23:41;4.40;;;2.20;;
34960;SDS011;30789;52.030;7.110;2023-07-31T10:26:09;4.35;;;2.35;;
34960;SDS011;30789;52.030;7.110;2023-07-31T10:28:37;3.22;;;2.50;;
34960;SDS011;30789;52.030;7.110;2023-07-31T10:31:05;3.78;;;2.60;;
34960;SDS011;30789;52.030;7.110;2023-07-31T10:33:32;5.35;;;2.88;;
34960;SDS011;30789;52.030;7.110;2023-07-31T10:36:13;4.57;;;2.95;;
34960;SDS011;30789;52.030;7.110;2023-07-31T10:38:41;3.53;;;2.58;;
34960;SDS011;30789;52.030;7.110;2023-07-31T10:41:08;4.65;;;3.08;;
34960;SDS011;30789;52.030;7.110;2023-07-31T10:43:35;5.03;;;2.80;;
34960;SDS011;30789;52.030;7.110;2023-07-31T10:46:06;5.45;;;2.60;;
34960;SDS011;30789;52.030;7.110;2023-07-31T10:48:33;4.60;;;3.00;;
34960;SDS011;30789;52.030;7.110;2023-07-31T10:51:02;3.70;;;2.40;;
34960;SDS011;30789;52.030;7.110;2023-07-31T10:56:01;3.80;;;3.05;;
34960;SDS011;30789;52.030;7.110;2023-07-31T10:58:28;4.20;;;3.10;;
34960;SDS011;30789;52.030;7.110;2023-07-31T11:00:57;3.38;;;2.83;;
34960;SDS011;30789;52.030;7.110;2023-07-31T11:03:25;3.63;;;2.58;;
34960;SDS011;30789;52.030;7.110;2023-07-31T11:05:52;2.85;;;2.53;;
34960;SDS011;30789;52.030;7.110;2023-07-31T11:08:20;3.45;;;2.80;;
34960;SDS011;30789;52.030;7.110;2023-07-31T11:10:50;3.17;;;2.88;;
34960;SDS011;30789;52.030;7.110;2023-07-31T11:13:30;4.07;;;2.72;;
34960;SDS011;30789;52.030;7.110;2023-07-31T11:15:57;3.83;;;3.00;;
34960;SDS011;30789;52.030;7.110;2023-07-31T11:18:24;4.55;;;2.53;;
34960;SDS011;30789;52.030;7.110;2023-07-31T11:20:52;3.15;;;2.85;;
34960;SDS011;30789;52.030;7.110;2023-07-31T11:23:19;4.18;;;3.10;;
34960;SDS011;30789;52.030;7.110;2023-07-31T11:25:46;5.85;;;3.72;;
34960;SDS011;30789;52.030;7.110;2023-07-31T11:28:15;5.22;;;4.05;;
34960;SDS011;30789;52.030;7.110;2023-07-31T11:30:43;5.07;;;4.53;;
34960;SDS011;30789;52.030;7.110;2023-07-31T11:33:11;6.45;;;4.82;;
34960;SDS011;30789;52.030;7.110;2023-07-31T11:35:41;5.10;;;4.60;;
34960;SDS011;30789;52.030;7.110;2023-07-31T11:38:09;6.28;;;4.60;;
34960;SDS011;30789;52.030;7.110;2023-07-31T11:40:40;5.32;;;4.10;;
34960;SDS011;30789;52.030;7.110;2023-07-31T11:43:08;6.97;;;4.73;;
34960;SDS011;30789;52.030;7.110;2023-07-31T11:45:37;6.95;;;4.93;;
34960;SDS011;30789;52.030;7.110;2023-07-31T11:48:06;7.55;;;5.30;;
34960;SDS011;30789;52.030;7.110;2023-07-31T11:50:33;8.77;;;5.35;;
34960;SDS011;30789;52.030;7.110;2023-07-31T11:53:03;10.07;;;5.85;;
34960;SDS011;30789;52.030;7.110;2023-07-31T11:55:33;10.77;;;6.40;;
34960;SDS011;30789;52.030;7.110;2023-07-31T11:58:01;8.93;;;6.55;;
34960;SDS011;30789;52.030;7.110;2023-07-31T12:00:28;6.75;;;5.45;;
34960;SDS011;30789;52.030;7.110;2023-07-31T12:02:56;10.20;;;6.45;;
34960;SDS011;30789;52.030;7.110;2023-07-31T12:05:23;9.18;;;6.90;;
34960;SDS011;30789;52.030;7.110;2023-07-31T12:07:50;9.63;;;6.35;;
34960;SDS011;30789;52.030;7.110;2023-07-31T12:10:27;11.32;;;6.35;;
34960;SDS011;30789;52.030;7.110;2023-07-31T12:12:55;9.18;;;5.80;;
34960;SDS011;30789;52.030;7.110;2023-07-31T12:15:28;9.00;;;4.72;;
34960;SDS011;30789;52.030;7.110;2023-07-31T12:17:58;10.45;;;5.68;;
34960;SDS011;30789;52.030;7.110;2023-07-31T12:20:25;6.13;;;5.28;;
34960;SDS011;30789;52.030;7.110;2023-07-31T12:22:52;9.32;;;5.40;;
34960;SDS011;30789;52.030;7.110;2023-07-31T12:25:21;8.70;;;5.43;;
34960;SDS011;30789;52.030;7.110;2023-07-31T12:27:48;5.78;;;4.78;;
34960;SDS011;30789;52.030;7.110;2023-07-31T12:30:26;6.15;;;4.20;;
34960;SDS011;30789;52.030;7.110;2023-07-31T12:32:53;8.60;;;4.50;;
34960;SDS011;30789;52.030;7.110;2023-07-31T12:35:21;7.00;;;4.18;;
34960;SDS011;30789;52.030;7.110;2023-07-31T12:37:47;5.20;;;4.70;;
34960;SDS011;30789;52.030;7.110;2023-07-31T12:40:14;7.75;;;4.53;;
34960;SDS011;30789;52.030;7.110;2023-07-31T12:42:41;7.75;;;4.90;;
34960;SDS011;30789;52.030;7.110;2023-07-31T12:45:08;9.95;;;5.45;;
34960;SDS011;30789;52.030;7.110;2023-07-31T12:47:34;8.57;;;5.22;;
34960;SDS011;30789;52.030;7.110;2023-07-31T12:50:01;8.15;;;5.20;;
34960;SDS011;30789;52.030;7.110;2023-07-31T12:52:29;8.32;;;5.05;;
34960;SDS011;30789;52.030;7.110;2023-07-31T12:54:55;7.13;;;5.10;;
34960;SDS011;30789;52.030;7.110;2023-07-31T12:57:22;5.97;;;4.55;;
34960;SDS011;30789;52.030;7.110;2023-07-31T12:59:48;6.75;;;4.40;;
34960;SDS011;30789;52.030;7.110;2023-07-31T13:02:15;6.57;;;4.32;;
34960;SDS011;30789;52.030;7.110;2023-07-31T13:04:41;8.40;;;5.00;;
34960;SDS011;30789;52.030;7.110;2023-07-31T13:07:08;7.10;;;4.93;;
34960;SDS011;30789;52.030;7.110;2023-07-31T13:09:36;11.00;;;5.70;;
34960;SDS011;30789;52.030;7.110;2023-07-31T13:12:02;7.70;;;5.15;;
34960;SDS011;30789;52.030;7.110;2023-07-31T13:14:29;8.93;;;4.82;;
34960;SDS011;30789;52.030;7.110;2023-07-31T13:16:55;7.95;;;5.22;;
34960;SDS011;30789;52.030;7.110;2023-07-31T13:19:22;6.50;;;4.20;;
34960;SDS011;30789;52.030;7.110;2023-07-31T13:21:49;7.28;;;4.70;;
34960;SDS011;30789;52.030;7.110;2023-07-31T13:24:15;8.15;;;4.88;;
34960;SDS011;30789;52.030;7.110;2023-07-31T13:26:43;8.68;;;4.07;;
34960;SDS011;30789;52.030;7.110;2023-07-31T13:29:09;6.35;;;4.53;;
34960;SDS011;30789;52.030;7.110;2023-07-31T13:31:36;12.02;;;3.80;;
34960;SDS011;30789;52.030;7.110;2023-07-31T13:34:02;9.10;;;3.85;;
34960;SDS011;30789;52.030;7.110;2023-07-31T13:36:29;4.43;;;3.70;;
34960;SDS011;30789;52.030;7.110;2023-07-31T13:38:56;6.22;;;4.00;;
34960;SDS011;30789;52.030;7.110;2023-07-31T13:41:22;6.25;;;3.80;;
34960;SDS011;30789;52.030;7.110;2023-07-31T13:43:50;4.60;;;3.67;;
34960;SDS011;30789;52.030;7.110;2023-07-31T13:46:16;6.25;;;3.40;;
34960;SDS011;30789;52.030;7.110;2023-07-31T13:48:43;6.30;;;3.92;;
34960;SDS011;30789;52.030;7.110;2023-07-31T13:51:12;5.38;;;3.05;;
34960;SDS011;30789;52.030;7.110;2023-07-31T13:53:39;5.63;;;3.58;;
34960;SDS011;30789;52.030;7.110;2023-07-31T13:56:05;6.75;;;3.35;;
34960;SDS011;30789;52.030;7.110;2023-07-31T13:58:32;5.25;;;3.25;;
34960;SDS011;30789;52.030;7.110;2023-07-31T14:01:00;5.57;;;3.40;;
34960;SDS011;30789;52.030;7.110;2023-07-31T14:03:27;4.80;;;3.05;;
34960;SDS011;30789;52.030;7.110;2023-07-31T14:05:53;4.30;;;3.10;;
34960;SDS011;30789;52.030;7.110;2023-07-31T14:08:20;5.90;;;3.08;;
34960;SDS011;30789;52.030;7.110;2023-07-31T14:10:47;4.18;;;2.72;;
34960;SDS011;30789;52.030;7.110;2023-07-31T14:13:13;4.35;;;2.83;;
34960;SDS011;30789;52.030;7.110;2023-07-31T14:15:41;4.85;;;3.13;;
34960;SDS011;30789;52.030;7.110;2023-07-31T14:18:09;4.10;;;3.10;;
34960;SDS011;30789;52.030;7.110;2023-07-31T14:20:36;4.32;;;3.22;;
34960;SDS011;30789;52.030;7.110;2023-07-31T14:23:02;5.10;;;3.00;;
34960;SDS011;30789;52.030;7.110;2023-07-31T14:25:29;4.22;;;2.80;;
34960;SDS011;30789;52.030;7.110;2023-07-31T14:27:56;5.55;;;3.10;;
34960;SDS011;30789;52.030;7.110;2023-07-31T14:30:23;4.57;;;2.40;;
34960;SDS011;30789;52.030;7.110;2023-07-31T14:32:49;8.45;;;3.22;;
34960;SDS011;30789;52.030;7.110;2023-07-31T14:35:17;5.07;;;3.10;;
34960;SDS011;30789;52.030;7.110;2023-07-31T14:37:44;8.63;;;3.47;;
34960;SDS011;30789;52.030;7.110;2023-07-31T14:40:11;6.78;;;3.13;;
34960;SDS011;30789;52.030;7.110;2023-07-31T14:42:39;7.15;;;3.42;;
34960;SDS011;30789;52.030;7.110;2023-07-31T14:45:06;4.90;;;3.15;;
34960;SDS011;30789;52.030;7.110;2023-07-31T14:47:35;8.95;;;3.80;;
34960;SDS011;30789;52.030;7.110;2023-07-31T14:50:01;3.35;;;2.78;;
34960;SDS011;30789;52.030;7.110;2023-07-31T14:52:29;4.32;;;3.20;;